sensor_id;sensor_type;location;lat;lon;timestamp;pressure;altitude;pressure_sealevel;temperature;humidity
82222;BME280;71818;52.352;10.912;2024-03-17T00:02:00;100985.31;;;16.35;49.11
82222;BME280;71818;52.352;10.912;2024-03-17T00:04:26;100978.53;;;16.36;49.16
82222;BME280;71818;52.352;10.912;2024-03-17T00:06:52;100982.16;;;16.33;49.02
82222;BME280;71818;52.352;10.912;2024-03-17T00:09:17;100983.72;;;16.34;49.19
82222;BME280;71818;52.352;10.912;2024-03-17T00:11:44;100983.72;;;16.34;48.98
82222;BME280;71818;52.352;10.912;2024-03-17T00:14:09;100983.38;;;16.32;49.33
82222;BME280;71818;52.352;10.912;2024-03-17T00:16:34;100979.00;;;16.31;49.25
82222;BME280;71818;52.352;10.912;2024-03-17T00:18:59;100984.56;;;16.31;49.03
82222;BME280;71818;52.352;10.912;2024-03-17T00:21:25;100978.16;;;16.34;49.15
82222;BME280;71818;52.352;10.912;2024-03-17T00:23:51;100986.16;;;16.32;49.06
82222;BME280;71818;52.352;10.912;2024-03-17T00:26:16;100988.56;;;16.30;49.03
82222;BME280;71818;52.352;10.912;2024-03-17T00:28:41;100986.19;;;16.29;48.93
82222;BME280;71818;52.352;10.912;2024-03-17T00:31:10;100983.78;;;16.31;49.03
82222;BME280;71818;52.352;10.912;2024-03-17T00:33:35;100984.56;;;16.31;48.97
82222;BME280;71818;52.352;10.912;2024-03-17T00:36:01;100986.66;;;16.27;49.14
82222;BME280;71818;52.352;10.912;2024-03-17T00:38:26;100983.88;;;16.27;49.03
82222;BME280;71818;52.352;10.912;2024-03-17T00:40:51;100982.28;;;16.26;48.88
82222;BME280;71818;52.352;10.912;2024-03-17T00:43:16;100986.19;;;16.29;49.17
82222;BME280;71818;52.352;10.912;2024-03-17T00:45:42;100982.72;;;16.25;49.03
82222;BME280;71818;52.352;10.912;2024-03-17T00:48:07;100991.06;;;16.25;49.04
82222;BME280;71818;52.352;10.912;2024-03-17T00:50:32;100999.81;;;16.23;49.04
82222;BME280;71818;52.352;10.912;2024-03-17T00:52:57;100986.28;;;16.25;49.19
82222;BME280;71818;52.352;10.912;2024-03-17T00:55:23;100988.69;;;16.23;49.18
82222;BME280;71818;52.352;10.912;2024-03-17T00:57:48;100998.25;;;16.22;48.90
82222;BME280;71818;52.352;10.912;2024-03-17T01:00:13;100998.25;;;16.22;49.03
82222;BME280;71818;52.352;10.912;2024-03-17T01:02:40;100986.34;;;16.22;49.05
82222;BME280;71818;52.352;10.912;2024-03-17T01:05:05;100995.09;;;16.20;49.04
82222;BME280;71818;52.352;10.912;2024-03-17T01:07:34;100995.88;;;16.20;49.22
82222;BME280;71818;52.352;10.912;2024-03-17T01:09:59;100993.91;;;16.21;48.97
82222;BME280;71818;52.352;10.912;2024-03-17T01:12:25;100995.88;;;16.20;49.21
82222;BME280;71818;52.352;10.912;2024-03-17T01:14:50;100999.97;;;16.16;49.17
82222;BME280;71818;52.352;10.912;2024-03-17T01:17:16;100997.53;;;16.18;49.09
82222;BME280;71818;52.352;10.912;2024-03-17T01:19:42;100990.41;;;16.17;49.14
82222;BME280;71818;52.352;10.912;2024-03-17T01:22:08;100995.97;;;16.17;49.12
82222;BME280;71818;52.352;10.912;2024-03-17T01:24:33;100995.97;;;16.17;49.35
82222;BME280;71818;52.352;10.912;2024-03-17T01:26:59;100997.53;;;16.18;49.14
82222;BME280;71818;52.352;10.912;2024-03-17T01:29:24;101006.34;;;16.13;49.17
82222;BME280;71818;52.352;10.912;2024-03-17T01:31:50;101002.38;;;16.14;48.82
82222;BME280;71818;52.352;10.912;2024-03-17T01:34:16;100996.81;;;16.14;49.15
82222;BME280;71818;52.352;10.912;2024-03-17T01:36:41;101002.38;;;16.14;49.02
82222;BME280;71818;52.352;10.912;2024-03-17T01:39:06;100996.81;;;16.14;49.08
82222;BME280;71818;52.352;10.912;2024-03-17T01:41:32;100991.72;;;16.09;49.22
82222;BME280;71818;52.352;10.912;2024-03-17T01:43:58;100986.53;;;16.11;49.26
82222;BME280;71818;52.352;10.912;2024-03-17T01:46:24;100991.72;;;16.09;49.20
82222;BME280;71818;52.352;10.912;2024-03-17T01:48:50;100996.06;;;16.10;49.42
82222;BME280;71818;52.352;10.912;2024-03-17T01:51:15;100999.28;;;16.08;49.42
82222;BME280;71818;52.352;10.912;2024-03-17T01:53:42;100987.44;;;16.04;49.65
82222;BME280;71818;52.352;10.912;2024-03-17T01:56:10;100980.25;;;16.07;49.26
82222;BME280;71818;52.352;10.912;2024-03-17T01:58:36;100984.94;;;16.10;49.11
82222;BME280;71818;52.352;10.912;2024-03-17T02:01:01;100988.94;;;16.09;49.29
82222;BME280;71818;52.352;10.912;2024-03-17T02:03:28;100988.59;;;16.07;49.08
82222;BME280;71818;52.352;10.912;2024-03-17T02:05:53;100987.44;;;16.04;49.26
82222;BME280;71818;52.352;10.912;2024-03-17T02:08:18;100988.59;;;16.07;49.30
82222;BME280;71818;52.352;10.912;2024-03-17T02:10:45;100985.06;;;16.03;48.96
82222;BME280;71818;52.352;10.912;2024-03-17T02:13:10;100983.88;;;16.04;49.08
82222;BME280;71818;52.352;10.912;2024-03-17T02:15:36;100985.88;;;16.03;49.66
82222;BME280;71818;52.352;10.912;2024-03-17T02:18:01;100991.06;;;16.01;49.21
82222;BME280;71818;52.352;10.912;2024-03-17T02:20:27;100992.22;;;16.04;49.18
82222;BME280;71818;52.352;10.912;2024-03-17T02:23:11;100990.25;;;16.01;49.27
82222;BME280;71818;52.352;10.912;2024-03-17T02:25:37;100994.66;;;15.98;49.06
82222;BME280;71818;52.352;10.912;2024-03-17T02:28:02;100994.63;;;16.02;49.17
82222;BME280;71818;52.352;10.912;2024-03-17T02:30:28;100999.41;;;16.01;49.06
82222;BME280;71818;52.352;10.912;2024-03-17T02:32:54;100993.47;;;15.99;49.42
82222;BME280;71818;52.352;10.912;2024-03-17T02:35:22;100991.13;;;15.98;49.30
82222;BME280;71818;52.352;10.912;2024-03-17T02:37:47;100998.25;;;15.99;49.26
82222;BME280;71818;52.352;10.912;2024-03-17T02:40:12;100986.00;;;15.96;49.45
82222;BME280;71818;52.352;10.912;2024-03-17T02:42:39;100999.81;;;16.00;49.49
82222;BME280;71818;52.352;10.912;2024-03-17T02:45:06;100992.34;;;15.97;49.49
82222;BME280;71818;52.352;10.912;2024-03-17T02:47:31;100993.03;;;16.01;49.19
82222;BME280;71818;52.352;10.912;2024-03-17T02:49:57;101002.59;;;16.00;49.38
82222;BME280;71818;52.352;10.912;2024-03-17T02:52:22;101001.88;;;15.96;49.43
82222;BME280;71818;52.352;10.912;2024-03-17T02:54:47;101001.09;;;15.95;49.39
82222;BME280;71818;52.352;10.912;2024-03-17T02:57:13;100990.75;;;15.96;49.45
82222;BME280;71818;52.352;10.912;2024-03-17T02:59:38;100995.53;;;15.95;49.15
82222;BME280;71818;52.352;10.912;2024-03-17T03:02:03;101000.31;;;15.95;49.43
82222;BME280;71818;52.352;10.912;2024-03-17T03:04:29;101002.66;;;15.96;49.36
82222;BME280;71818;52.352;10.912;2024-03-17T03:06:55;100995.47;;;15.99;49.30
82222;BME280;71818;52.352;10.912;2024-03-17T03:09:20;100992.38;;;15.93;49.38
82222;BME280;71818;52.352;10.912;2024-03-17T03:11:47;100996.31;;;15.96;49.54
82222;BME280;71818;52.352;10.912;2024-03-17T03:14:12;100996.31;;;15.96;49.37
82222;BME280;71818;52.352;10.912;2024-03-17T03:16:38;100997.53;;;15.95;49.42
82222;BME280;71818;52.352;10.912;2024-03-17T03:19:03;100995.53;;;15.95;49.30
82222;BME280;71818;52.352;10.912;2024-03-17T03:21:30;101002.72;;;15.93;48.77
82222;BME280;71818;52.352;10.912;2024-03-17T03:23:55;100994.78;;;15.91;49.33
82222;BME280;71818;52.352;10.912;2024-03-17T03:26:21;101003.56;;;15.90;49.49
82222;BME280;71818;52.352;10.912;2024-03-17T03:28:46;100994.00;;;15.91;49.38
82222;BME280;71818;52.352;10.912;2024-03-17T03:31:12;100995.59;;;15.92;49.44
82222;BME280;71818;52.352;10.912;2024-03-17T03:33:40;101002.72;;;15.93;49.69
82222;BME280;71818;52.352;10.912;2024-03-17T03:36:12;100998.72;;;15.94;49.21
82222;BME280;71818;52.352;10.912;2024-03-17T03:38:38;100996.38;;;15.92;49.11
82222;BME280;71818;52.352;10.912;2024-03-17T03:41:12;100989.22;;;15.91;49.02
82222;BME280;71818;52.352;10.912;2024-03-17T03:43:38;100994.00;;;15.91;49.21
82222;BME280;71818;52.352;10.912;2024-03-17T03:46:03;100993.16;;;15.94;49.31
82222;BME280;71818;52.352;10.912;2024-03-17T03:48:29;101001.16;;;15.92;49.51
82222;BME280;71818;52.352;10.912;2024-03-17T03:50:55;100987.66;;;15.90;49.12
82222;BME280;71818;52.352;10.912;2024-03-17T03:53:20;100990.50;;;15.87;49.38
82222;BME280;71818;52.352;10.912;2024-03-17T03:55:46;100996.41;;;15.89;49.37
82222;BME280;71818;52.352;10.912;2024-03-17T03:58:11;100989.31;;;15.88;49.40
82222;BME280;71818;52.352;10.912;2024-03-17T04:00:38;100995.59;;;15.92;49.00
82222;BME280;71818;52.352;10.912;2024-03-17T04:03:04;100988.06;;;15.89;49.14
82222;BME280;71818;52.352;10.912;2024-03-17T04:05:30;100994.88;;;15.88;49.13
82222;BME280;71818;52.352;10.912;2024-03-17T04:07:55;100997.28;;;15.86;49.44
82222;BME280;71818;52.352;10.912;2024-03-17T04:10:21;101001.25;;;15.85;49.33
82222;BME280;71818;52.352;10.912;2024-03-17T04:12:46;100994.50;;;15.86;49.34
82222;BME280;71818;52.352;10.912;2024-03-17T04:15:12;100993.72;;;15.85;49.38
82222;BME280;71818;52.352;10.912;2024-03-17T04:17:39;100987.38;;;15.85;49.13
82222;BME280;71818;52.352;10.912;2024-03-17T04:20:05;100985.78;;;15.83;49.33
82222;BME280;71818;52.352;10.912;2024-03-17T04:22:33;100995.69;;;15.85;49.30
82222;BME280;71818;52.352;10.912;2024-03-17T04:24:58;100996.53;;;15.81;49.39
82222;BME280;71818;52.352;10.912;2024-03-17T04:27:24;100996.91;;;15.83;49.37
82222;BME280;71818;52.352;10.912;2024-03-17T04:29:52;100999.69;;;15.83;49.37
82222;BME280;71818;52.352;10.912;2024-03-17T04:32:17;101002.09;;;15.81;49.19
82222;BME280;71818;52.352;10.912;2024-03-17T04:34:42;101000.09;;;15.82;49.45
82222;BME280;71818;52.352;10.912;2024-03-17T04:37:12;101004.50;;;15.79;49.46
82222;BME280;71818;52.352;10.912;2024-03-17T04:39:41;101004.50;;;15.79;49.34
82222;BME280;71818;52.352;10.912;2024-03-17T04:42:12;100993.75;;;15.81;49.37
82222;BME280;71818;52.352;10.912;2024-03-17T04:44:37;101009.28;;;15.79;49.31
82222;BME280;71818;52.352;10.912;2024-03-17T04:47:03;100991.03;;;15.78;49.29
82222;BME280;71818;52.352;10.912;2024-03-17T04:49:32;101002.09;;;15.81;49.35
82222;BME280;71818;52.352;10.912;2024-03-17T04:51:58;101000.53;;;15.80;49.46
82222;BME280;71818;52.352;10.912;2024-03-17T04:54:24;100996.53;;;15.81;49.29
82222;BME280;71818;52.352;10.912;2024-03-17T04:56:49;100998.13;;;15.82;49.33
82222;BME280;71818;52.352;10.912;2024-03-17T04:59:14;100998.94;;;15.79;49.08
82222;BME280;71818;52.352;10.912;2024-03-17T05:01:40;100993.75;;;15.81;49.22
82222;BME280;71818;52.352;10.912;2024-03-17T05:04:05;100998.94;;;15.79;49.35
82222;BME280;71818;52.352;10.912;2024-03-17T05:06:30;101004.50;;;15.79;49.17
82222;BME280;71818;52.352;10.912;2024-03-17T05:08:56;101008.94;;;15.77;49.18
82222;BME280;71818;52.352;10.912;2024-03-17T05:11:21;101003.72;;;15.79;49.36
82222;BME280;71818;52.352;10.912;2024-03-17T05:13:49;101004.50;;;15.79;49.24
82222;BME280;71818;52.352;10.912;2024-03-17T05:16:14;101010.06;;;15.79;49.04
82222;BME280;71818;52.352;10.912;2024-03-17T05:18:40;101014.06;;;15.78;49.32
82222;BME280;71818;52.352;10.912;2024-03-17T05:21:06;101015.63;;;15.79;49.18
82222;BME280;71818;52.352;10.912;2024-03-17T05:23:35;101014.06;;;15.78;49.25
82222;BME280;71818;52.352;10.912;2024-03-17T05:26:02;101018.78;;;15.81;49.10
82222;BME280;71818;52.352;10.912;2024-03-17T05:28:30;101015.63;;;15.79;49.11
82222;BME280;71818;52.352;10.912;2024-03-17T05:30:55;101021.19;;;15.79;49.11
82222;BME280;71818;52.352;10.912;2024-03-17T05:33:22;101025.91;;;15.82;48.81
82222;BME280;71818;52.352;10.912;2024-03-17T05:35:52;101018.00;;;15.81;49.10
82222;BME280;71818;52.352;10.912;2024-03-17T05:38:26;101020.72;;;15.85;48.72
82222;BME280;71818;52.352;10.912;2024-03-17T05:40:58;101037.03;;;15.82;48.72
82222;BME280;71818;52.352;10.912;2024-03-17T05:43:25;101039.41;;;15.84;48.64
82222;BME280;71818;52.352;10.912;2024-03-17T05:45:52;101039.81;;;15.82;49.00
82222;BME280;71818;52.352;10.912;2024-03-17T05:48:17;101044.97;;;15.84;49.11
82222;BME280;71818;52.352;10.912;2024-03-17T05:50:43;101044.16;;;15.83;48.40
82222;BME280;71818;52.352;10.912;2024-03-17T05:53:08;101041.75;;;15.86;48.85
82222;BME280;71818;52.352;10.912;2024-03-17T05:55:37;101044.91;;;15.88;48.87
82222;BME280;71818;52.352;10.912;2024-03-17T05:58:03;101048.91;;;15.87;48.70
82222;BME280;71818;52.352;10.912;2024-03-17T06:00:28;101060.81;;;15.87;48.79
82222;BME280;71818;52.352;10.912;2024-03-17T06:02:53;101045.25;;;15.90;48.71
82222;BME280;71818;52.352;10.912;2024-03-17T06:05:19;101060.75;;;15.91;48.72
82222;BME280;71818;52.352;10.912;2024-03-17T06:07:44;101062.31;;;15.92;48.37
82222;BME280;71818;52.352;10.912;2024-03-17T06:10:09;101067.03;;;15.95;48.54
82222;BME280;71818;52.352;10.912;2024-03-17T06:12:34;101068.63;;;15.96;48.58
82222;BME280;71818;52.352;10.912;2024-03-17T06:15:00;101065.47;;;15.94;48.78
82222;BME280;71818;52.352;10.912;2024-03-17T06:17:27;101070.19;;;15.97;48.42
82222;BME280;71818;52.352;10.912;2024-03-17T06:19:52;101074.19;;;15.96;48.42
82222;BME280;71818;52.352;10.912;2024-03-17T06:22:17;101066.56;;;16.00;48.37
82222;BME280;71818;52.352;10.912;2024-03-17T06:24:43;101069.34;;;16.00;48.33
82222;BME280;71818;52.352;10.912;2024-03-17T06:27:08;101067.75;;;15.99;48.49
82222;BME280;71818;52.352;10.912;2024-03-17T06:29:33;101060.66;;;15.98;48.34
82222;BME280;71818;52.352;10.912;2024-03-17T06:31:58;101063.78;;;16.00;48.18
82222;BME280;71818;52.352;10.912;2024-03-17T06:34:25;101067.72;;;16.02;48.14
82222;BME280;71818;52.352;10.912;2024-03-17T06:36:50;101080.38;;;16.07;47.87
82222;BME280;71818;52.352;10.912;2024-03-17T06:39:15;101079.50;;;16.10;47.86
82222;BME280;71818;52.352;10.912;2024-03-17T06:41:42;101074.81;;;16.07;47.82
82222;BME280;71818;52.352;10.912;2024-03-17T06:44:07;101081.09;;;16.11;47.89
82222;BME280;71818;52.352;10.912;2024-03-17T06:46:33;101079.88;;;16.12;47.84
82222;BME280;71818;52.352;10.912;2024-03-17T06:48:58;101076.31;;;16.11;47.94
82222;BME280;71818;52.352;10.912;2024-03-17T06:51:24;101082.19;;;16.17;47.82
82222;BME280;71818;52.352;10.912;2024-03-17T06:53:50;101084.97;;;16.17;47.74
82222;BME280;71818;52.352;10.912;2024-03-17T06:56:15;101078.22;;;16.18;47.73
82222;BME280;71818;52.352;10.912;2024-03-17T06:58:40;101070.94;;;16.24;47.56
82222;BME280;71818;52.352;10.912;2024-03-17T07:01:05;101078.47;;;16.27;47.46
82222;BME280;71818;52.352;10.912;2024-03-17T07:03:31;101077.25;;;16.28;47.40
82222;BME280;71818;52.352;10.912;2024-03-17T07:05:59;101085.59;;;16.28;47.57
82222;BME280;71818;52.352;10.912;2024-03-17T07:08:27;101090.28;;;16.31;47.34
82222;BME280;71818;52.352;10.912;2024-03-17T07:11:02;101089.88;;;16.33;47.02
82222;BME280;71818;52.352;10.912;2024-03-17T07:13:33;101082.19;;;16.40;47.28
82222;BME280;71818;52.352;10.912;2024-03-17T07:16:00;101080.56;;;16.43;46.87
82222;BME280;71818;52.352;10.912;2024-03-17T07:18:26;101088.00;;;16.49;47.02
82222;BME280;71818;52.352;10.912;2024-03-17T07:20:52;101092.34;;;16.50;46.67
82222;BME280;71818;52.352;10.912;2024-03-17T07:23:18;101085.16;;;16.53;46.57
82222;BME280;71818;52.352;10.912;2024-03-17T07:25:54;101087.53;;;16.54;46.94
82222;BME280;71818;52.352;10.912;2024-03-17T07:28:20;101085.13;;;16.56;46.56
82222;BME280;71818;52.352;10.912;2024-03-17T07:30:47;101075.47;;;16.61;46.28
82222;BME280;71818;52.352;10.912;2024-03-17T07:33:13;101081.88;;;16.62;46.27
82222;BME280;71818;52.352;10.912;2024-03-17T07:35:58;101080.19;;;16.68;46.10
82222;BME280;71818;52.352;10.912;2024-03-17T07:38:25;101078.47;;;16.74;45.95
82222;BME280;71818;52.352;10.912;2024-03-17T07:41:04;101077.72;;;16.70;45.97
82222;BME280;71818;52.352;10.912;2024-03-17T07:43:33;101072.16;;;16.70;45.92
82222;BME280;71818;52.352;10.912;2024-03-17T07:46:00;101068.06;;;16.78;45.61
82222;BME280;71818;52.352;10.912;2024-03-17T07:48:25;101072.69;;;16.84;46.06
82222;BME280;71818;52.352;10.912;2024-03-17T07:50:55;101077.44;;;16.87;45.50
82222;BME280;71818;52.352;10.912;2024-03-17T08:03:27;101078.66;;;17.06;44.96
82222;BME280;71818;52.352;10.912;2024-03-17T08:09:15;101088.03;;;17.16;44.76
82222;BME280;71818;52.352;10.912;2024-03-17T08:15:03;101074.56;;;17.30;44.43
82222;BME280;71818;52.352;10.912;2024-03-17T08:20:51;101080.28;;;17.43;44.05
82222;BME280;71818;52.352;10.912;2024-03-17T08:23:16;101076.22;;;17.48;43.97
82222;BME280;71818;52.352;10.912;2024-03-17T08:29:03;101068.66;;;17.48;43.66
82222;BME280;71818;52.352;10.912;2024-03-17T08:38:12;101079.91;;;17.61;43.64
82222;BME280;71818;52.352;10.912;2024-03-17T08:44:01;101076.13;;;17.71;43.15
82222;BME280;71818;52.352;10.912;2024-03-17T08:49:51;101083.31;;;17.88;43.21
82222;BME280;71818;52.352;10.912;2024-03-17T08:55:39;101073.25;;;18.11;42.44
82222;BME280;71818;52.352;10.912;2024-03-17T08:58:04;101085.63;;;18.10;42.65
82222;BME280;71818;52.352;10.912;2024-03-17T09:00:30;101082.28;;;18.15;42.16
82222;BME280;71818;52.352;10.912;2024-03-17T09:02:57;101079.00;;;18.20;42.22
82222;BME280;71818;52.352;10.912;2024-03-17T09:05:22;101069.66;;;18.10;42.26
82222;BME280;71818;52.352;10.912;2024-03-17T09:07:47;101075.66;;;18.09;42.70
82222;BME280;71818;52.352;10.912;2024-03-17T09:10:13;101072.69;;;18.16;42.32
82222;BME280;71818;52.352;10.912;2024-03-17T09:12:38;101069.91;;;18.16;42.46
82222;BME280;71818;52.352;10.912;2024-03-17T09:15:04;101072.34;;;18.14;42.41
82222;BME280;71818;52.352;10.912;2024-03-17T09:17:30;101066.75;;;18.14;42.44
82222;BME280;71818;52.352;10.912;2024-03-17T09:19:55;101071.13;;;18.15;42.34
82222;BME280;71818;52.352;10.912;2024-03-17T09:22:20;101065.56;;;18.15;42.12
82222;BME280;71818;52.352;10.912;2024-03-17T09:24:45;101068.34;;;18.15;42.54
82222;BME280;71818;52.352;10.912;2024-03-17T09:27:12;101060.56;;;18.22;42.42
82222;BME280;71818;52.352;10.912;2024-03-17T09:29:38;101064.00;;;18.30;42.29
82222;BME280;71818;52.352;10.912;2024-03-17T09:32:03;101068.78;;;18.29;42.30
82222;BME280;71818;52.352;10.912;2024-03-17T09:34:29;101075.22;;;18.26;42.26
82222;BME280;71818;52.352;10.912;2024-03-17T09:36:55;101072.72;;;18.32;42.17
82222;BME280;71818;52.352;10.912;2024-03-17T09:39:21;101075.31;;;18.39;41.93
82222;BME280;71818;52.352;10.912;2024-03-17T09:41:46;101080.81;;;18.43;42.07
82222;BME280;71818;52.352;10.912;2024-03-17T09:44:12;101076.34;;;18.45;42.12
82222;BME280;71818;52.352;10.912;2024-03-17T09:46:40;101075.13;;;18.46;41.89
82222;BME280;71818;52.352;10.912;2024-03-17T09:49:14;101076.34;;;18.45;42.02
82222;BME280;71818;52.352;10.912;2024-03-17T09:51:40;101076.19;;;18.52;41.81
82222;BME280;71818;52.352;10.912;2024-03-17T09:54:17;101076.72;;;18.63;41.73
82222;BME280;71818;52.352;10.912;2024-03-17T09:56:44;101080.91;;;18.71;41.25
82222;BME280;71818;52.352;10.912;2024-03-17T09:59:09;101079.69;;;18.72;41.37
82222;BME280;71818;52.352;10.912;2024-03-17T10:01:34;101079.78;;;18.69;41.46
82222;BME280;71818;52.352;10.912;2024-03-17T10:03:59;101073.19;;;18.75;41.29
82222;BME280;71818;52.352;10.912;2024-03-17T10:06:29;101077.22;;;18.74;41.36
82222;BME280;71818;52.352;10.912;2024-03-17T10:08:56;101079.69;;;18.72;41.40
82222;BME280;71818;52.352;10.912;2024-03-17T10:11:33;101073.19;;;18.75;41.26
82222;BME280;71818;52.352;10.912;2024-03-17T10:16:26;101074.69;;;18.80;41.11
82222;BME280;71818;52.352;10.912;2024-03-17T10:19:10;101081.94;;;18.78;41.17
82222;BME280;71818;52.352;10.912;2024-03-17T10:21:37;101076.44;;;18.74;41.39
82222;BME280;71818;52.352;10.912;2024-03-17T10:24:07;101071.63;;;18.74;41.19
82222;BME280;71818;52.352;10.912;2024-03-17T10:26:47;101071.38;;;18.69;41.61
82222;BME280;71818;52.352;10.912;2024-03-17T10:29:20;101070.44;;;18.59;41.54
82222;BME280;71818;52.352;10.912;2024-03-17T10:31:46;101065.91;;;18.49;42.08
82222;BME280;71818;52.352;10.912;2024-03-17T10:37:32;101067.81;;;18.52;41.89
82222;BME280;71818;52.352;10.912;2024-03-17T10:43:19;101071.13;;;18.63;41.71
82222;BME280;71818;52.352;10.912;2024-03-17T10:52:34;101074.28;;;18.94;41.15
82222;BME280;71818;52.352;10.912;2024-03-17T10:58:32;101071.75;;;19.00;41.02
82222;BME280;71818;52.352;10.912;2024-03-17T11:08:01;101081.34;;;18.99;41.16
82222;BME280;71818;52.352;10.912;2024-03-17T11:10:28;101077.53;;;18.93;41.35
82222;BME280;71818;52.352;10.912;2024-03-17T11:12:55;101076.84;;;18.89;41.41
82222;BME280;71818;52.352;10.912;2024-03-17T11:20:42;101072.41;;;19.04;41.46
82222;BME280;71818;52.352;10.912;2024-03-17T11:23:09;101064.72;;;19.08;41.33
82222;BME280;71818;52.352;10.912;2024-03-17T11:25:38;101060.84;;;19.18;40.88
82222;BME280;71818;52.352;10.912;2024-03-17T11:28:07;101057.53;;;19.23;40.87
82222;BME280;71818;52.352;10.912;2024-03-17T11:38:51;101046.44;;;19.20;40.80
82222;BME280;71818;52.352;10.912;2024-03-17T11:49:23;101038.44;;;18.93;41.55
82222;BME280;71818;52.352;10.912;2024-03-17T11:51:49;101043.53;;;18.82;41.82
82222;BME280;71818;52.352;10.912;2024-03-17T11:54:17;101048.41;;;18.78;41.91
82222;BME280;71818;52.352;10.912;2024-03-17T11:56:45;101050.47;;;18.90;41.87
82222;BME280;71818;52.352;10.912;2024-03-17T11:59:10;101043.53;;;18.82;41.97
82222;BME280;71818;52.352;10.912;2024-03-17T12:01:36;101043.53;;;18.82;41.83
82222;BME280;71818;52.352;10.912;2024-03-17T12:04:04;101044.41;;;18.79;41.87
82222;BME280;71818;52.352;10.912;2024-03-17T12:06:34;101045.72;;;18.74;41.58
82222;BME280;71818;52.352;10.912;2024-03-17T12:09:10;101033.72;;;18.90;41.82
82222;BME280;71818;52.352;10.912;2024-03-17T12:11:42;101027.25;;;18.93;41.36
82222;BME280;71818;52.352;10.912;2024-03-17T12:14:19;101026.19;;;19.03;41.36
82222;BME280;71818;52.352;10.912;2024-03-17T12:16:53;101023.16;;;19.10;41.07
82222;BME280;71818;52.352;10.912;2024-03-17T12:19:19;101022.28;;;19.13;41.02
82222;BME280;71818;52.352;10.912;2024-03-17T12:21:51;101012.13;;;19.19;41.00
82222;BME280;71818;52.352;10.912;2024-03-17T12:24:18;101015.81;;;19.29;40.77
82222;BME280;71818;52.352;10.912;2024-03-17T12:26:45;101015.44;;;19.14;41.07
82222;BME280;71818;52.352;10.912;2024-03-17T12:29:23;101020.59;;;19.03;41.44
82222;BME280;71818;52.352;10.912;2024-03-17T12:31:51;101015.31;;;19.05;41.60
82222;BME280;71818;52.352;10.912;2024-03-17T13:08:53;101004.47;;;13.58;38.45
82222;BME280;71818;52.352;10.912;2024-03-17T13:11:18;101002.91;;;12.59;39.96
82222;BME280;71818;52.352;10.912;2024-03-17T13:13:43;100996.06;;;12.96;41.57
82222;BME280;71818;52.352;10.912;2024-03-17T13:16:09;101000.09;;;12.80;40.00
82222;BME280;71818;52.352;10.912;2024-03-17T13:18:37;100989.00;;;12.87;41.11
82222;BME280;71818;52.352;10.912;2024-03-17T13:21:03;100987.31;;;13.15;40.21
82222;BME280;71818;52.352;10.912;2024-03-17T13:23:28;100974.69;;;14.24;38.09
82222;BME280;71818;52.352;10.912;2024-03-17T13:25:55;100970.94;;;13.97;38.43
82222;BME280;71818;52.352;10.912;2024-03-17T13:28:20;100973.31;;;13.98;36.85
82222;BME280;71818;52.352;10.912;2024-03-17T13:30:45;100969.22;;;13.66;37.06
82222;BME280;71818;52.352;10.912;2024-03-17T13:33:12;100964.19;;;13.46;37.27
82222;BME280;71818;52.352;10.912;2024-03-17T13:35:39;100966.63;;;13.92;35.59
82222;BME280;71818;52.352;10.912;2024-03-17T13:38:09;100969.19;;;14.17;35.56
82222;BME280;71818;52.352;10.912;2024-03-17T13:40:36;100968.28;;;13.27;36.07
82222;BME280;71818;52.352;10.912;2024-03-17T13:43:03;100962.91;;;12.85;36.07
82222;BME280;71818;52.352;10.912;2024-03-17T13:45:31;100959.38;;;13.54;36.48
82222;BME280;71818;52.352;10.912;2024-03-17T13:48:01;100963.31;;;13.60;34.29
82222;BME280;71818;52.352;10.912;2024-03-17T13:50:27;100965.06;;;13.36;35.21
82222;BME280;71818;52.352;10.912;2024-03-17T13:52:52;100955.56;;;13.92;35.25
82222;BME280;71818;52.352;10.912;2024-03-17T13:55:19;100962.13;;;14.09;35.41
82222;BME280;71818;52.352;10.912;2024-03-17T13:57:49;100963.06;;;14.74;34.30
82222;BME280;71818;52.352;10.912;2024-03-17T14:00:16;100956.78;;;15.31;34.24
82222;BME280;71818;52.352;10.912;2024-03-17T14:02:43;100950.28;;;14.84;34.39
82222;BME280;71818;52.352;10.912;2024-03-17T14:05:12;100962.03;;;13.06;36.56
82222;BME280;71818;52.352;10.912;2024-03-17T14:07:37;100961.81;;;13.52;36.05
82222;BME280;71818;52.352;10.912;2024-03-17T14:10:02;100957.84;;;14.80;34.41
82222;BME280;71818;52.352;10.912;2024-03-17T14:12:28;100954.19;;;12.90;36.66
82222;BME280;71818;52.352;10.912;2024-03-17T14:14:53;100959.50;;;13.36;37.70
82222;BME280;71818;52.352;10.912;2024-03-17T14:17:19;100961.59;;;13.77;35.96
82222;BME280;71818;52.352;10.912;2024-03-17T14:19:44;100966.28;;;13.87;35.93
82222;BME280;71818;52.352;10.912;2024-03-17T14:22:09;100970.09;;;12.68;37.94
82222;BME280;71818;52.352;10.912;2024-03-17T14:24:37;100966.09;;;12.76;38.74
82222;BME280;71818;52.352;10.912;2024-03-17T14:27:03;100958.06;;;13.14;37.17
82222;BME280;71818;52.352;10.912;2024-03-17T14:29:29;100960.22;;;12.67;37.93
82222;BME280;71818;52.352;10.912;2024-03-17T14:31:54;100962.84;;;12.99;37.78
82222;BME280;71818;52.352;10.912;2024-03-17T14:34:19;100955.84;;;12.73;37.19
82222;BME280;71818;52.352;10.912;2024-03-17T14:36:44;100959.13;;;13.89;36.85
82222;BME280;71818;52.352;10.912;2024-03-17T14:39:10;100949.25;;;14.29;34.07
82222;BME280;71818;52.352;10.912;2024-03-17T14:41:35;100949.16;;;13.47;35.34